createdAt,value
2019-02-14T00:01:34.228Z,13.20
2019-02-14T00:04:01.157Z,13.21
2019-02-14T00:06:28.966Z,13.18
2019-02-14T00:08:56.562Z,13.07
2019-02-14T00:11:23.806Z,13.19
2019-02-14T00:13:50.796Z,13.30
2019-02-14T00:16:17.755Z,13.24
2019-02-14T00:18:44.732Z,13.18
2019-02-14T00:21:12.285Z,13.26
2019-02-14T00:23:39.560Z,13.27
2019-02-14T00:26:06.572Z,13.37
2019-02-14T00:28:33.541Z,13.43
2019-02-14T00:31:01.536Z,13.34
2019-02-14T00:33:28.503Z,13.43
2019-02-14T00:35:55.401Z,13.41
2019-02-14T00:38:22.493Z,13.37
2019-02-14T00:40:49.453Z,13.41
2019-02-14T00:43:16.750Z,13.45
2019-02-14T00:45:44.690Z,13.54
2019-02-14T00:48:11.950Z,13.49
2019-02-14T00:50:39.099Z,13.53
2019-02-14T00:53:06.048Z,13.42
2019-02-14T00:55:33.526Z,13.49
2019-02-14T00:58:00.474Z,13.50
2019-02-14T01:00:27.344Z,13.60
2019-02-14T01:02:54.258Z,13.56
2019-02-14T01:05:21.219Z,13.57
2019-02-14T01:07:48.249Z,13.57
2019-02-14T01:10:15.605Z,13.45
2019-02-14T01:12:42.846Z,13.41
2019-02-14T01:15:09.761Z,13.36
2019-02-14T01:17:37.266Z,13.30
2019-02-14T01:20:04.186Z,13.29
2019-02-14T01:22:31.065Z,13.43
2019-02-14T01:24:58.400Z,13.48
2019-02-14T01:27:25.650Z,13.63
2019-02-14T01:29:52.586Z,13.51
2019-02-14T01:32:19.560Z,13.41
2019-02-14T01:34:46.461Z,13.49
2019-02-14T01:37:13.647Z,13.53
2019-02-14T01:39:40.618Z,13.45
2019-02-14T01:42:07.526Z,13.51
2019-02-14T01:44:34.785Z,13.57
2019-02-14T01:47:01.697Z,13.60
2019-02-14T01:49:29.015Z,13.60
2019-02-14T01:51:56.026Z,13.61
2019-02-14T01:54:23.391Z,13.50
2019-02-14T01:56:50.284Z,13.60
2019-02-14T01:59:17.490Z,13.45
2019-02-14T02:01:44.450Z,13.44
2019-02-14T02:04:11.784Z,13.50
2019-02-14T02:06:39.036Z,13.40
2019-02-14T02:09:06.202Z,13.48
2019-02-14T02:11:35.306Z,13.45
2019-02-14T02:14:02.589Z,13.50
2019-02-14T02:16:30.000Z,13.38
2019-02-14T02:18:57.010Z,13.28
2019-02-14T02:21:23.958Z,13.39
2019-02-14T02:23:50.970Z,13.49
2019-02-14T02:26:18.307Z,13.50
2019-02-14T02:28:45.761Z,13.44
2019-02-14T02:31:12.712Z,13.38
2019-02-14T02:33:39.710Z,13.29
2019-02-14T02:36:06.597Z,13.44
2019-02-14T02:38:34.020Z,13.41
2019-02-14T02:41:00.980Z,13.34
2019-02-14T02:43:27.935Z,13.42
2019-02-14T02:45:54.898Z,13.40
2019-02-14T02:48:21.765Z,13.29
2019-02-14T02:50:49.209Z,13.23
2019-02-14T02:53:16.246Z,13.40
2019-02-14T02:55:43.196Z,13.35
2019-02-14T02:58:10.171Z,13.34
2019-02-14T03:00:37.147Z,13.41
2019-02-14T03:03:04.156Z,13.37
2019-02-14T03:05:31.117Z,13.41
2019-02-14T03:07:58.012Z,13.23
2019-02-14T03:10:25.267Z,13.25
2019-02-14T03:12:52.245Z,13.34
2019-02-14T03:15:19.536Z,13.25
2019-02-14T03:17:46.721Z,13.25
2019-02-14T03:20:13.701Z,13.27
2019-02-14T03:22:41.035Z,13.26
2019-02-14T03:25:08.362Z,13.07
2019-02-14T03:27:35.253Z,13.24
2019-02-14T03:30:02.154Z,13.23
2019-02-14T03:32:30.189Z,13.24
2019-02-14T03:34:57.146Z,13.14
2019-02-14T03:37:24.419Z,13.22
2019-02-14T03:39:51.340Z,13.03
2019-02-14T03:42:18.312Z,13.00
2019-02-14T03:44:45.285Z,13.10
2019-02-14T03:47:12.268Z,13.03
2019-02-14T03:49:39.263Z,12.94
2019-02-14T03:52:06.500Z,12.94
2019-02-14T03:54:33.370Z,13.04
2019-02-14T03:57:00.293Z,12.94
2019-02-14T03:59:27.549Z,12.95
2019-02-14T04:01:54.443Z,12.85
2019-02-14T04:04:21.339Z,12.77
2019-02-14T04:06:48.358Z,12.81
2019-02-14T04:09:15.619Z,12.81
2019-02-14T04:11:42.665Z,12.94
2019-02-14T04:14:10.017Z,12.87
2019-02-14T04:16:37.404Z,12.77
2019-02-14T04:19:04.371Z,12.63
2019-02-14T04:21:31.369Z,12.79
2019-02-14T04:23:58.336Z,12.78
2019-02-14T04:26:25.337Z,12.87
2019-02-14T04:28:52.662Z,12.84
2019-02-14T04:31:19.885Z,12.79
2019-02-14T04:33:46.822Z,12.75
2019-02-14T04:36:14.243Z,12.69
2019-02-14T04:38:41.236Z,12.75
2019-02-14T04:41:08.144Z,12.71
2019-02-14T04:43:35.145Z,12.73
2019-02-14T04:46:02.479Z,12.78
2019-02-14T04:48:32.786Z,12.69
2019-02-14T04:51:00.045Z,12.68
2019-02-14T04:53:26.981Z,12.65
2019-02-14T04:55:55.153Z,12.59
2019-02-14T04:58:22.108Z,12.46
2019-02-14T05:00:49.027Z,12.50
2019-02-14T05:03:15.973Z,12.36
2019-02-14T05:05:42.858Z,12.42
2019-02-14T05:08:10.230Z,12.40
2019-02-14T05:10:37.166Z,12.41
2019-02-14T05:13:04.434Z,12.36
2019-02-14T05:15:31.829Z,12.41
2019-02-14T05:17:59.142Z,12.40
2019-02-14T05:20:26.090Z,12.40
2019-02-14T05:22:53.028Z,12.39
2019-02-14T05:25:20.273Z,12.23
2019-02-14T05:27:47.554Z,12.24
2019-02-14T05:30:14.619Z,12.11
2019-02-14T05:32:41.597Z,12.23
2019-02-14T05:35:09.547Z,12.19
2019-02-14T05:37:36.449Z,12.16
2019-02-14T05:40:03.397Z,12.19
2019-02-14T05:42:30.644Z,12.02
2019-02-14T05:44:58.045Z,12.08
2019-02-14T05:47:25.342Z,12.16
2019-02-14T05:49:52.610Z,12.28
2019-02-14T05:52:19.986Z,12.30
2019-02-14T05:54:47.332Z,12.43
2019-02-14T05:57:14.389Z,12.50
2019-02-14T05:59:41.287Z,12.39
2019-02-14T06:02:08.172Z,12.38
2019-02-14T06:04:35.128Z,12.40
2019-02-14T06:07:02.375Z,12.38
2019-02-14T06:09:29.402Z,12.29
2019-02-14T06:11:56.363Z,12.37
2019-02-14T06:14:23.717Z,12.39
2019-02-14T06:16:50.631Z,12.20
2019-02-14T06:19:17.622Z,12.26
2019-02-14T06:21:44.657Z,12.38
2019-02-14T06:24:16.515Z,12.34
2019-02-14T06:26:40.938Z,12.30
2019-02-14T06:29:07.807Z,12.15
2019-02-14T06:31:34.692Z,11.97
2019-02-14T06:34:01.705Z,11.94
2019-02-14T06:36:28.594Z,11.98
2019-02-14T06:38:56.549Z,11.97
2019-02-14T06:41:23.510Z,11.81
2019-02-14T06:43:50.746Z,11.96
2019-02-14T06:46:17.669Z,11.99
2019-02-14T06:48:45.000Z,11.96
2019-02-14T06:51:11.986Z,11.95
2019-02-14T06:53:39.279Z,12.04
2019-02-14T06:56:06.440Z,12.00
2019-02-14T06:58:33.648Z,11.39
2019-02-14T07:01:00.664Z,11.64
2019-02-14T07:03:27.595Z,11.75
2019-02-14T07:05:54.888Z,11.80
2019-02-14T07:08:22.257Z,11.96
2019-02-14T07:10:49.186Z,11.84
2019-02-14T07:13:16.567Z,11.65
2019-02-14T07:15:45.132Z,11.63
2019-02-14T07:18:11.993Z,11.86
2019-02-14T07:20:41.934Z,11.64
2019-02-14T07:23:08.926Z,11.69
2019-02-14T07:25:35.895Z,11.87
2019-02-14T07:28:02.856Z,11.85
2019-02-14T07:30:29.822Z,11.93
2019-02-14T07:32:57.114Z,12.15
2019-02-14T07:35:24.512Z,12.30
2019-02-14T07:37:51.828Z,12.46
2019-02-14T07:40:19.113Z,12.47
2019-02-14T07:42:46.543Z,12.51
2019-02-14T07:45:13.495Z,12.51
2019-02-14T07:47:43.192Z,12.61
2019-02-14T07:50:10.156Z,12.55
2019-02-14T07:52:43.403Z,12.48
2019-02-14T07:55:10.505Z,12.72
2019-02-14T07:57:37.636Z,12.72
2019-02-14T08:00:04.665Z,12.50
2019-02-14T08:02:32.157Z,12.66
2019-02-14T08:04:59.654Z,12.68
2019-02-14T08:07:35.467Z,12.77
2019-02-14T08:09:55.812Z,12.84
2019-02-14T08:12:23.209Z,12.89
2019-02-14T08:14:50.175Z,12.92
2019-02-14T08:17:17.074Z,13.01
2019-02-14T08:19:43.954Z,13.00
2019-02-14T08:22:11.208Z,13.01
2019-02-14T08:24:38.194Z,13.10
2019-02-14T08:27:05.193Z,13.20
2019-02-14T08:29:32.130Z,13.31
2019-02-14T08:31:59.100Z,13.37
2019-02-14T08:34:26.054Z,13.30
2019-02-14T08:36:53.017Z,13.32
2019-02-14T08:39:20.343Z,13.35
2019-02-14T08:41:47.409Z,13.48
2019-02-14T08:44:14.775Z,13.50
2019-02-14T08:46:41.729Z,13.29
2019-02-14T08:49:08.664Z,13.34
2019-02-14T08:51:35.975Z,13.33
2019-02-14T08:54:02.970Z,13.39
2019-02-14T08:56:30.300Z,13.47
2019-02-14T08:58:57.241Z,13.61
2019-02-14T09:01:24.692Z,13.56
2019-02-14T09:03:51.942Z,13.62
2019-02-14T09:06:18.878Z,13.56
2019-02-14T09:08:46.120Z,13.60
2019-02-14T09:11:13.015Z,13.59
2019-02-14T09:13:40.026Z,13.41
2019-02-14T09:16:07.043Z,13.47
2019-02-14T09:18:34.116Z,13.64
2019-02-14T09:21:01.550Z,13.37
2019-02-14T09:23:28.518Z,13.42
2019-02-14T09:25:55.459Z,13.60
2019-02-14T09:28:22.725Z,13.75
2019-02-14T09:30:49.999Z,13.91
2019-02-14T09:33:17.019Z,13.97
2019-02-14T09:35:43.985Z,14.09
2019-02-14T09:38:10.967Z,14.24
2019-02-14T09:40:38.178Z,14.32
2019-02-14T09:43:05.087Z,14.35
2019-02-14T09:45:32.066Z,14.51
2019-02-14T09:47:59.032Z,14.43
2019-02-14T09:50:25.979Z,14.60
2019-02-14T09:52:53.209Z,14.69
2019-02-14T09:55:20.197Z,14.81
2019-02-14T09:57:49.137Z,14.84
2019-02-14T10:00:16.113Z,14.97
2019-02-14T10:02:43.075Z,14.93
2019-02-14T10:05:10.006Z,14.93
2019-02-14T10:07:36.896Z,14.98
2019-02-14T10:10:04.195Z,14.98
2019-02-14T10:12:32.961Z,15.13
2019-02-14T10:14:59.845Z,15.30
2019-02-14T10:17:27.067Z,15.30
2019-02-14T10:19:54.054Z,15.13
2019-02-14T10:22:21.017Z,15.21
2019-02-14T10:24:48.072Z,15.30
2019-02-14T10:27:15.354Z,15.31
2019-02-14T10:29:42.245Z,15.26
2019-02-14T10:32:09.459Z,15.12
2019-02-14T10:34:36.821Z,15.25
2019-02-14T10:37:03.794Z,15.23
2019-02-14T10:39:31.106Z,15.30
2019-02-14T10:41:57.977Z,15.23
2019-02-14T10:44:24.836Z,15.32
2019-02-14T10:46:51.740Z,15.35
2019-02-14T10:49:18.719Z,15.34
2019-02-14T10:51:45.657Z,15.37
2019-02-14T10:54:12.629Z,15.49
2019-02-14T10:56:39.927Z,15.55
2019-02-14T10:59:06.838Z,15.27
2019-02-14T11:01:33.825Z,15.42
2019-02-14T11:04:01.222Z,15.38
2019-02-14T11:06:28.129Z,15.15
2019-02-14T11:08:55.392Z,15.31
2019-02-14T11:11:22.361Z,15.40
2019-02-14T11:13:49.360Z,15.38
2019-02-14T11:16:16.316Z,15.35
2019-02-14T11:18:44.594Z,15.47
2019-02-14T11:21:11.801Z,15.46
2019-02-14T11:23:38.743Z,15.55
2019-02-14T11:26:05.795Z,15.43
2019-02-14T11:28:34.192Z,15.40
2019-02-14T11:31:01.103Z,15.55
2019-02-14T11:33:28.143Z,15.66
2019-02-14T11:35:55.106Z,15.49
2019-02-14T11:38:21.969Z,15.67
2019-02-14T11:40:48.874Z,15.57
2019-02-14T11:43:16.206Z,15.64
2019-02-14T11:45:43.543Z,15.72
2019-02-14T11:48:10.439Z,15.73
2019-02-14T11:50:38.405Z,15.70
2019-02-14T11:53:13.988Z,15.79
2019-02-14T11:55:34.328Z,15.63
2019-02-14T11:58:01.299Z,15.68
2019-02-14T12:00:28.249Z,15.74
2019-02-14T12:02:56.297Z,15.84
2019-02-14T12:05:23.522Z,15.81
2019-02-14T12:07:50.514Z,15.80
2019-02-14T12:10:19.053Z,15.73
2019-02-14T12:12:45.985Z,15.91
2019-02-14T12:15:14.271Z,16.00
2019-02-14T12:17:42.841Z,15.84
2019-02-14T12:20:17.036Z,15.74
2019-02-14T12:22:46.699Z,15.91
2019-02-14T12:25:12.894Z,16.05
2019-02-14T12:27:40.057Z,15.97
2019-02-14T12:30:07.028Z,16.17
2019-02-14T12:32:34.011Z,15.98
2019-02-14T12:35:01.313Z,16.05
2019-02-14T12:37:28.284Z,15.99
2019-02-14T12:39:55.226Z,15.99
2019-02-14T12:42:22.547Z,16.08
2019-02-14T12:44:49.839Z,16.19
2019-02-14T12:47:16.943Z,16.11
2019-02-14T12:49:44.207Z,16.12
2019-02-14T12:52:13.775Z,16.24
2019-02-14T12:54:40.825Z,16.16
2019-02-14T12:57:07.769Z,16.16
2019-02-14T12:59:34.737Z,16.26
2019-02-14T13:02:02.010Z,16.15
2019-02-14T13:04:29.251Z,16.42
2019-02-14T13:06:56.242Z,16.43
2019-02-14T13:09:23.295Z,16.30
2019-02-14T13:11:50.226Z,16.17
2019-02-14T13:14:17.558Z,16.24
2019-02-14T13:16:44.579Z,16.21
2019-02-14T13:19:13.178Z,16.19
2019-02-14T13:21:40.433Z,16.34
2019-02-14T13:24:07.438Z,16.33
2019-02-14T13:26:34.742Z,16.25
2019-02-14T13:29:01.645Z,16.38
2019-02-14T13:31:31.852Z,16.38
2019-02-14T13:33:57.222Z,16.44
2019-02-14T13:36:24.514Z,16.32
2019-02-14T13:38:51.562Z,16.29
2019-02-14T13:41:18.511Z,16.30
2019-02-14T13:43:45.421Z,16.26
2019-02-14T13:46:12.407Z,16.38
2019-02-14T13:48:39.362Z,16.52
2019-02-14T13:51:06.332Z,16.44
2019-02-14T13:53:33.272Z,16.41
2019-02-14T13:56:00.593Z,16.39
2019-02-14T13:58:27.811Z,16.43
2019-02-14T14:00:55.054Z,16.55
2019-02-14T14:03:22.043Z,16.37
2019-02-14T14:05:49.377Z,16.23
2019-02-14T14:08:16.379Z,16.29
2019-02-14T14:10:43.523Z,16.43
2019-02-14T14:13:10.413Z,16.49
2019-02-14T14:15:37.389Z,16.33
2019-02-14T14:18:04.430Z,16.26
2019-02-14T14:20:32.930Z,16.32
2019-02-14T14:22:59.837Z,16.27
2019-02-14T14:25:26.851Z,16.28
2019-02-14T14:27:53.804Z,16.38
2019-02-14T14:30:21.090Z,16.46
2019-02-14T14:32:48.103Z,16.44
2019-02-14T14:35:15.073Z,16.58
2019-02-14T14:37:42.068Z,16.58
2019-02-14T14:40:09.065Z,16.60
2019-02-14T14:42:36.536Z,16.59
2019-02-14T14:45:03.784Z,16.59
2019-02-14T14:47:31.135Z,16.59
2019-02-14T14:50:00.492Z,16.46
2019-02-14T14:52:27.802Z,16.22
2019-02-14T14:54:55.027Z,16.25
2019-02-14T14:57:22.304Z,16.33
2019-02-14T14:59:49.268Z,16.30
2019-02-14T15:02:16.612Z,16.35
2019-02-14T15:04:43.632Z,16.44
2019-02-14T15:07:10.647Z,16.46
2019-02-14T15:09:37.665Z,16.31
2019-02-14T15:12:04.883Z,16.50
2019-02-14T15:14:32.182Z,16.40
2019-02-14T15:16:59.197Z,16.32
2019-02-14T15:19:26.426Z,16.58
2019-02-14T15:21:53.390Z,16.55
2019-02-14T15:24:20.987Z,16.43
2019-02-14T15:26:47.887Z,16.49
2019-02-14T15:29:15.757Z,16.28
2019-02-14T15:31:43.352Z,16.33
2019-02-14T15:34:10.266Z,16.27
2019-02-14T15:36:37.197Z,16.26
2019-02-14T15:39:05.262Z,16.32
2019-02-14T15:41:32.284Z,16.31
2019-02-14T15:43:59.256Z,16.21
2019-02-14T15:46:26.249Z,16.13
2019-02-14T15:48:53.571Z,16.24
2019-02-14T15:51:20.540Z,16.16
2019-02-14T15:53:47.469Z,16.13
2019-02-14T15:56:14.441Z,16.04
2019-02-14T15:58:41.658Z,15.93
2019-02-14T16:01:09.026Z,15.94
2019-02-14T16:03:38.399Z,15.94
2019-02-14T16:06:06.209Z,15.90
2019-02-14T16:08:33.288Z,15.79
2019-02-14T16:11:01.579Z,15.70
2019-02-14T16:13:29.272Z,15.59
2019-02-14T16:15:58.793Z,15.59
2019-02-14T16:18:26.391Z,15.51
2019-02-14T16:20:53.365Z,15.40
2019-02-14T16:23:21.459Z,15.44
2019-02-14T16:25:50.051Z,15.36
2019-02-14T16:28:17.070Z,15.38
2019-02-14T16:30:44.502Z,15.40
2019-02-14T16:33:11.477Z,15.17
2019-02-14T16:35:38.424Z,15.04
2019-02-14T16:38:05.749Z,14.97
2019-02-14T16:40:42.817Z,15.00
2019-02-14T16:43:07.540Z,15.06
2019-02-14T16:45:36.275Z,14.96
2019-02-14T16:48:05.104Z,14.71
2019-02-14T16:50:32.055Z,14.69
2019-02-14T16:52:59.008Z,14.79
2019-02-14T16:55:26.034Z,14.74
2019-02-14T16:57:52.957Z,14.76
2019-02-14T17:00:20.183Z,14.69
2019-02-14T17:02:47.234Z,14.63
2019-02-14T17:05:16.991Z,14.69
2019-02-14T17:07:44.103Z,14.19
2019-02-14T17:10:11.375Z,14.31
2019-02-14T17:12:38.340Z,14.18
2019-02-14T17:15:05.310Z,14.28
2019-02-14T17:17:32.842Z,14.24
2019-02-14T17:20:00.668Z,13.96
2019-02-14T17:22:28.027Z,14.11
2019-02-14T17:24:55.028Z,14.00
2019-02-14T17:27:23.579Z,14.06
2019-02-14T17:29:50.636Z,13.91
2019-02-14T17:32:20.262Z,13.73
2019-02-14T17:34:49.185Z,13.77
2019-02-14T17:37:16.247Z,13.71
2019-02-14T17:39:43.502Z,13.48
2019-02-14T17:42:10.482Z,13.62
2019-02-14T17:44:37.492Z,13.75
2019-02-14T17:47:06.445Z,13.24
2019-02-14T17:49:33.767Z,13.13
2019-02-14T17:52:00.730Z,13.01
2019-02-14T17:54:28.062Z,13.20
2019-02-14T17:57:03.243Z,13.51
2019-02-14T17:59:30.231Z,13.20
2019-02-14T18:01:57.589Z,13.04
2019-02-14T18:04:24.951Z,13.14
2019-02-14T18:07:00.524Z,13.30
2019-02-14T18:09:27.478Z,13.26
2019-02-14T18:11:54.776Z,13.12
2019-02-14T18:14:22.054Z,13.05
2019-02-14T18:16:48.974Z,13.12
2019-02-14T18:19:15.981Z,13.26
2019-02-14T18:21:43.266Z,13.28
2019-02-14T18:24:10.558Z,13.26
2019-02-14T18:26:38.005Z,13.30
2019-02-14T18:29:05.323Z,13.06
2019-02-14T18:31:32.313Z,13.09
2019-02-14T18:33:59.582Z,13.11
2019-02-14T18:36:26.691Z,12.87
2019-02-14T18:38:59.703Z,12.97
2019-02-14T18:41:28.279Z,13.06
2019-02-14T18:43:55.547Z,12.56
2019-02-14T18:46:22.861Z,12.39
2019-02-14T18:48:49.865Z,12.71
2019-02-14T18:51:17.182Z,12.60
2019-02-14T18:53:44.089Z,12.19
2019-02-14T18:56:11.044Z,12.30
2019-02-14T18:58:38.058Z,12.61
2019-02-14T19:01:05.068Z,12.65
2019-02-14T19:03:32.017Z,12.68
2019-02-14T19:05:59.165Z,12.42
2019-02-14T19:08:26.139Z,12.34
2019-02-14T19:10:53.197Z,12.45
2019-02-14T19:13:20.453Z,12.17
2019-02-14T19:15:49.826Z,12.61
2019-02-14T19:18:16.810Z,12.47
2019-02-14T19:20:43.721Z,12.34
2019-02-14T19:23:10.673Z,12.49
2019-02-14T19:25:38.063Z,12.57
2019-02-14T19:28:05.134Z,12.51
2019-02-14T19:30:32.418Z,12.10
2019-02-14T19:32:59.368Z,12.21
2019-02-14T19:35:27.382Z,12.18
2019-02-14T19:37:55.282Z,12.23
2019-02-14T19:40:22.521Z,12.15
2019-02-14T19:42:49.475Z,12.04
2019-02-14T19:45:16.449Z,11.97
2019-02-14T19:47:43.826Z,12.27
2019-02-14T19:50:11.017Z,12.33
2019-02-14T19:52:38.314Z,12.24
2019-02-14T19:55:05.761Z,12.38
2019-02-14T19:57:32.725Z,12.11
2019-02-14T19:59:59.683Z,11.95
2019-02-14T20:02:26.609Z,12.25
2019-02-14T20:04:53.625Z,12.04
2019-02-14T20:07:24.631Z,12.08
2019-02-14T20:09:51.679Z,12.08
2019-02-14T20:12:19.014Z,11.74
2019-02-14T20:14:45.970Z,11.57
2019-02-14T20:17:15.981Z,11.99
2019-02-14T20:19:44.000Z,11.95
2019-02-14T20:22:13.461Z,12.25
2019-02-14T20:24:42.439Z,12.03
2019-02-14T20:27:11.047Z,12.13
2019-02-14T20:29:38.142Z,11.95
2019-02-14T20:32:06.666Z,12.08
2019-02-14T20:34:36.650Z,12.14
2019-02-14T20:37:03.985Z,12.13
2019-02-14T20:39:30.989Z,11.74
2019-02-14T20:41:59.647Z,11.64
2019-02-14T20:44:26.621Z,11.32
2019-02-14T20:46:53.675Z,11.79
2019-02-14T20:49:20.684Z,12.24
2019-02-14T20:51:49.098Z,11.99
2019-02-14T20:54:16.035Z,11.85
2019-02-14T20:56:43.080Z,11.95
2019-02-14T20:59:10.129Z,12.05
2019-02-14T21:01:37.116Z,11.80
2019-02-14T21:04:04.314Z,11.78
2019-02-14T21:06:31.234Z,11.75
2019-02-14T21:08:58.504Z,11.63
2019-02-14T21:11:25.523Z,11.32
2019-02-14T21:13:52.525Z,11.03
2019-02-14T21:16:19.852Z,11.23
2019-02-14T21:18:47.200Z,12.24
2019-02-14T21:21:14.147Z,11.66
2019-02-14T21:23:41.104Z,11.28
2019-02-14T21:26:08.117Z,11.03
2019-02-14T21:28:35.110Z,11.09
2019-02-14T21:31:02.094Z,11.28
2019-02-14T21:33:29.335Z,11.32
2019-02-14T21:35:56.397Z,11.34
2019-02-14T21:38:23.852Z,11.03
2019-02-14T21:40:51.271Z,11.14
2019-02-14T21:43:18.684Z,11.21
2019-02-14T21:45:45.716Z,11.01
2019-02-14T21:48:12.691Z,10.96
2019-02-14T21:50:39.727Z,10.99
2019-02-14T21:53:09.054Z,11.08
2019-02-14T21:55:35.305Z,11.19
2019-02-14T21:58:04.555Z,11.02
2019-02-14T22:00:31.029Z,11.04
2019-02-14T22:02:58.578Z,11.24
2019-02-14T22:05:26.694Z,11.16
2019-02-14T22:07:53.911Z,10.77
2019-02-14T22:10:21.160Z,10.91
2019-02-14T22:12:48.453Z,11.03
2019-02-14T22:15:15.535Z,11.29
2019-02-14T22:17:42.739Z,11.30
2019-02-14T22:20:10.127Z,11.58
2019-02-14T22:22:37.474Z,11.79
2019-02-14T22:25:04.418Z,10.95
2019-02-14T22:27:31.307Z,11.09
2019-02-14T22:29:58.689Z,10.95
2019-02-14T22:32:25.597Z,11.01
2019-02-14T22:34:52.563Z,11.05
2019-02-14T22:37:19.484Z,10.92
2019-02-14T22:39:46.526Z,11.05
2019-02-14T22:42:14.029Z,11.17
2019-02-14T22:44:41.082Z,11.08
2019-02-14T22:47:07.981Z,10.70
2019-02-14T22:49:35.004Z,10.58
2019-02-14T22:52:02.004Z,10.62
2019-02-14T22:54:31.829Z,10.52
2019-02-14T22:56:58.811Z,10.61
2019-02-14T22:59:26.132Z,10.70
2019-02-14T23:01:53.469Z,10.50
2019-02-14T23:04:20.450Z,10.56
2019-02-14T23:06:47.758Z,10.24
2019-02-14T23:09:15.013Z,10.53
2019-02-14T23:11:41.962Z,10.49
2019-02-14T23:14:09.212Z,10.50
2019-02-14T23:16:36.558Z,10.72
2019-02-14T23:19:03.483Z,10.54
2019-02-14T23:21:30.498Z,10.44
2019-02-14T23:23:57.473Z,10.34
2019-02-14T23:26:24.548Z,10.33
2019-02-14T23:28:51.602Z,9.70
2019-02-14T23:31:18.884Z,10.08
2019-02-14T23:33:45.881Z,10.28
2019-02-14T23:36:12.934Z,10.10
2019-02-14T23:38:41.262Z,9.72
2019-02-14T23:41:08.485Z,9.69
2019-02-14T23:43:35.765Z,9.65
2019-02-14T23:46:02.662Z,9.59
2019-02-14T23:48:29.935Z,9.20
2019-02-14T23:50:57.350Z,9.62
2019-02-14T23:53:24.263Z,9.06
2019-02-14T23:55:51.260Z,8.88
2019-02-14T23:58:18.541Z,9.17
